In Rescue
 
Open Full Screen Window  High Contrast Mode
September 19, 2019 4:25 PM CDT
Weather Information
Wind Direction
  ---
Wind Speed
  00 kt (0 mph)
Wind Gust
  00 kt (0 mph)
Altimeter
29.97 in
Visibility
10 SM
Temperature
28° C
82° F
Dewpoint
16° C
61° F
Humidity
48%
1hr Rain Fall
00.00 in.
24hr Rain Fall
00.02 in.
Sky Condition
Clear
VFR

METAR KANE 192125Z AUTO 00000KT 10SM CLR 28/16 A2997 RMK AO2

FAA Disclaimer: The data displayed is for advisory purposes only and is not to be used for flight planning or operations.